Airfield :
LOGIN :

Register | Disclaimer

   EN    FR    IT 

 










Legend :    VFR   Marginal VFR   IFR   Intensive IFR   Very Intensive IFR
Visi :
Ceiling :
>= 8 km
>= 3000ft
5 to 8 km
1000 to 3000 ft
1500m to 5 km
500 to 1000 ft
800 to 1500m
200 to 500 ft
< 800m
< 200 ft
Symbols :   Thunderstorms  Fog  Heavy snow  Heavy precipitations  Wind > 20 kt
SIGMETs :     Misc.  Thunderstorms  Icing  Turbulence  Mountain Waves  Volcanic Ashes






- Airport Elevation : 412 ft
- IATA code : KGS


LGKO - Ippokratis

CURRENT METAR :
  • 021320Z 33008KT 9999 SCT020 16/10 Q1010

EXPIRED METARs :
  • 021250Z 32010KT 9999 SCT020 16/10 Q1010
  • 021220Z 30011KT 9999 SCT020 17/09 Q1010
  • 021150Z 28012KT 9999 SCT020 17/09 Q1010
  • 021120Z 26014KT 9999 SCT020 18/09 Q1009
  • 021050Z 24013KT 9999 SCT020 18/09 Q1009

TAF TAF LGKO
Valid from the 02 at 12:00 until the 03 at 12:00 UTC


021100Z 0212/0312 28015KT 9999 FEW016 SCT020
PROB40
TEMPO 0212/0218 5000 RA SCT010 FEW018TCU BKN020
BECMG 0306/0308 VRB05KT



MET'MAP, your aeronautical weather chart ! - Copyright ORBIFLY December 2007 - Disclaimer

ORBIFLY MET'MAP TEAM :

Programming & Development : Alexandra Zaïnal
Concept & original design : Baudouin d'Aumeries
Assistance for programming : Marc-Olivier Méhu
Technical & hardware support : Manuel Goepfert

Contact : metmap@orbifly.com




SOURCES & CREDITS :

   NOAA